createdAt,value
2022-12-25T00:03:39.112Z,3.92
2022-12-25T00:11:44.537Z,4.68
2022-12-25T00:19:52.641Z,3.28
2022-12-25T00:27:58.126Z,3.78
2022-12-25T00:36:06.998Z,4.40
2022-12-25T00:44:13.784Z,3.60
2022-12-25T00:52:21.935Z,3.75
2022-12-25T01:00:27.277Z,4.38
2022-12-25T01:08:37.749Z,4.15
2022-12-25T01:16:43.645Z,4.13
2022-12-25T01:24:51.706Z,4.40
2022-12-25T01:32:58.184Z,4.50
2022-12-25T01:41:06.345Z,5.70
2022-12-25T01:49:14.966Z,3.90
2022-12-25T01:57:28.043Z,3.97
2022-12-25T02:05:36.116Z,4.47
2022-12-25T02:13:44.219Z,4.57
2022-12-25T02:22:03.821Z,4.40
2022-12-25T02:30:14.201Z,4.93
2022-12-25T02:38:23.351Z,4.25
2022-12-25T02:46:46.382Z,4.78
2022-12-25T02:55:24.299Z,4.17
2022-12-25T03:03:48.837Z,4.50
2022-12-25T03:12:01.873Z,4.90
2022-12-25T03:20:35.523Z,4.50
2022-12-25T03:28:40.849Z,4.20
2022-12-25T03:37:02.340Z,5.03
2022-12-25T03:45:32.973Z,4.55
2022-12-25T03:53:57.794Z,4.28
2022-12-25T04:02:15.673Z,3.42
2022-12-25T04:10:36.044Z,3.92
2022-12-25T04:18:54.185Z,4.18
2022-12-25T04:27:17.393Z,4.00
2022-12-25T04:35:35.148Z,3.92
2022-12-25T04:43:43.247Z,4.30
2022-12-25T04:51:48.672Z,3.83
2022-12-25T04:59:56.740Z,4.47
2022-12-25T05:08:02.060Z,3.92
2022-12-25T05:16:15.455Z,4.32
2022-12-25T05:24:21.403Z,3.55
2022-12-25T05:32:29.587Z,4.28
2022-12-25T05:40:37.017Z,4.07
2022-12-25T05:48:45.380Z,4.80
2022-12-25T05:56:50.621Z,4.95
2022-12-25T06:04:58.678Z,5.05
2022-12-25T06:13:04.205Z,6.35
2022-12-25T06:21:14.516Z,19.15
2022-12-25T06:29:20.075Z,28.60
2022-12-25T06:37:28.193Z,15.45
2022-12-25T06:45:33.778Z,8.93
2022-12-25T06:53:42.485Z,8.00
2022-12-25T07:01:50.654Z,7.28
2022-12-25T07:09:58.835Z,5.95
2022-12-25T07:18:04.693Z,6.43
2022-12-25T07:26:14.721Z,6.68
2022-12-25T07:34:20.567Z,7.32
2022-12-25T07:42:28.759Z,7.35
2022-12-25T07:50:34.463Z,6.22
2022-12-25T07:58:42.612Z,6.45
2022-12-25T08:06:48.135Z,7.75
2022-12-25T08:14:56.307Z,7.90
2022-12-25T08:23:02.816Z,8.73
2022-12-25T08:31:17.079Z,9.00
2022-12-25T08:39:22.661Z,7.68
2022-12-25T08:47:30.728Z,6.85
2022-12-25T08:55:36.113Z,6.72
2022-12-25T09:03:44.352Z,6.38
2022-12-25T09:11:49.911Z,6.15
2022-12-25T09:19:58.072Z,5.47
2022-12-25T09:28:03.662Z,5.85
2022-12-25T09:36:14.924Z,6.22
2022-12-25T09:44:24.082Z,5.03
2022-12-25T09:52:40.476Z,5.20
2022-12-25T10:00:57.537Z,5.25
2022-12-25T10:09:26.826Z,4.90
2022-12-25T10:17:43.674Z,4.70
2022-12-25T10:25:51.837Z,4.38
2022-12-25T10:33:58.508Z,4.10
2022-12-25T10:42:26.729Z,3.95
2022-12-25T10:50:33.919Z,4.50
2022-12-25T10:58:41.978Z,4.13
2022-12-25T11:06:47.568Z,3.80
2022-12-25T11:15:04.472Z,5.55
2022-12-25T11:23:13.597Z,5.18
2022-12-25T11:31:24.646Z,4.05
2022-12-25T11:39:32.504Z,5.13
2022-12-25T11:47:45.107Z,5.00
2022-12-25T11:55:55.029Z,4.05
2022-12-25T12:04:04.228Z,3.45
2022-12-25T12:12:13.350Z,4.47
2022-12-25T12:20:32.927Z,3.40
2022-12-25T12:28:47.784Z,3.42
2022-12-25T12:37:03.952Z,3.63
2022-12-25T12:45:19.325Z,4.05
2022-12-25T12:53:35.024Z,4.00
2022-12-25T13:01:51.433Z,3.75
2022-12-25T13:10:10.623Z,4.28
2022-12-25T13:18:17.143Z,3.20
2022-12-25T13:26:25.188Z,2.80
2022-12-25T13:34:34.152Z,3.20
2022-12-25T13:42:42.860Z,3.20
2022-12-25T13:50:49.369Z,2.60
2022-12-25T13:58:57.653Z,2.58
2022-12-25T14:07:12.664Z,3.00
2022-12-25T14:15:24.019Z,3.10
2022-12-25T14:23:30.337Z,4.53
2022-12-25T14:31:39.842Z,8.93
2022-12-25T14:39:48.459Z,10.52
2022-12-25T14:48:00.334Z,10.90
2022-12-25T14:56:06.449Z,10.23
2022-12-25T15:04:24.527Z,8.00
2022-12-25T15:12:30.201Z,8.13
2022-12-25T15:20:38.899Z,7.63
2022-12-25T15:28:44.752Z,7.05
2022-12-25T15:36:54.773Z,7.35
2022-12-25T15:45:00.667Z,8.93
2022-12-25T15:53:09.111Z,9.35
2022-12-25T16:01:18.301Z,11.32
2022-12-25T16:09:27.695Z,10.70
2022-12-25T16:17:33.201Z,12.38
2022-12-25T16:25:41.240Z,14.93
2022-12-25T16:33:46.693Z,15.13
2022-12-25T16:41:54.870Z,21.90
2022-12-25T16:50:00.565Z,22.15
2022-12-25T16:58:19.413Z,21.95
2022-12-25T17:06:27.110Z,21.17
2022-12-25T17:14:35.564Z,20.48
2022-12-25T17:22:41.054Z,20.35
2022-12-25T17:30:49.102Z,23.40
2022-12-25T17:38:54.533Z,26.63
2022-12-25T17:47:02.661Z,25.50
2022-12-25T17:55:09.528Z,26.42
2022-12-25T18:03:18.488Z,26.60
2022-12-25T18:11:29.335Z,27.10
2022-12-25T18:19:37.444Z,35.67
2022-12-25T18:27:45.042Z,33.67
2022-12-25T18:35:53.402Z,41.92
2022-12-25T18:43:59.850Z,38.53
2022-12-25T18:52:47.715Z,39.58
2022-12-25T19:00:34.158Z,40.88
2022-12-25T19:08:42.296Z,43.85
2022-12-25T19:16:47.755Z,36.88
2022-12-25T19:24:55.718Z,34.22
2022-12-25T19:33:01.311Z,37.65
2022-12-25T19:41:13.077Z,39.72
2022-12-25T19:49:18.494Z,47.67
2022-12-25T19:57:26.521Z,52.97
2022-12-25T20:05:32.305Z,52.10
2022-12-25T20:13:40.667Z,37.40
2022-12-25T20:21:46.214Z,26.65
2022-12-25T20:30:16.887Z,21.35
2022-12-25T20:38:22.420Z,15.23
2022-12-25T20:46:30.484Z,16.65
2022-12-25T20:54:35.994Z,21.55
2022-12-25T21:02:44.618Z,29.67
2022-12-25T21:10:52.476Z,30.60
2022-12-25T21:19:01.307Z,27.58
2022-12-25T21:27:06.993Z,28.65
2022-12-25T21:35:15.309Z,25.40
2022-12-25T21:43:31.414Z,33.55
2022-12-25T21:51:51.624Z,51.35
2022-12-25T21:59:57.280Z,55.38
2022-12-25T22:08:05.566Z,65.90
2022-12-25T22:16:23.748Z,62.95
2022-12-25T22:24:31.876Z,49.55
2022-12-25T22:32:37.868Z,47.17
2022-12-25T22:40:45.956Z,40.50
2022-12-25T22:48:51.601Z,38.20
2022-12-25T22:57:00.470Z,49.50
2022-12-25T23:05:06.291Z,51.30
2022-12-25T23:13:27.266Z,51.72
2022-12-25T23:21:45.135Z,41.40
2022-12-25T23:29:53.117Z,33.05
2022-12-25T23:37:58.867Z,28.83
2022-12-25T23:46:07.047Z,26.42
2022-12-25T23:54:13.882Z,23.23
